Aviation Digital Data Service (ADDS)

Output produced by METARs form (1604 UTC 17 October 2021)
found at http://aviationweather.gov/metar/data/
 
METAR text: EHGG 171555Z AUTO 21008KT 9999 NSC 13/07 Q1018 NOSIG
Conditions at: EHGG (GRONINGEN/EELDE , NL) observed 1555 UTC 17 October 2021
Temperature: 13.0°C (55°F)
Dewpoint: 7.0°C (45°F) [RH = 67%]
Pressure (altimeter): 30.06 inches Hg (1018.0 mb)
Winds: from the SSW (210 degrees) at 9 MPH (8 knots; 4.1 m/s)
Visibility: 6 or more miles (10+ km)
Ceiling: at least 12,000 feet AGL
Clouds: sky clear below 12,000 feet AGL
Weather: no significant weather observed at this time

METAR text: EHGG 171525Z AUTO 21007KT 9999 NSC 13/08 Q1018 NOSIG
Conditions at: EHGG (GRONINGEN/EELDE , NL) observed 1525 UTC 17 October 2021
Temperature: 13.0°C (55°F)
Dewpoint: 8.0°C (46°F) [RH = 72%]
Pressure (altimeter): 30.06 inches Hg (1018.0 mb)
Winds: from the SSW (210 degrees) at 8 MPH (7 knots; 3.6 m/s)
Visibility: 6 or more miles (10+ km)
Ceiling: at least 12,000 feet AGL
Clouds: sky clear below 12,000 feet AGL
Weather: no significant weather observed at this time

Forecast for: EHGG (GRONINGEN/EELDE , NL)
Text: TAF EHGG 171059Z 1712/1818 20007KT CAVOK
Forecast period: 1200 UTC 17 October 2021 to 1800 UTC 18 October 2021
Forecast type: FROM: standard forecast or significant change
Winds: from the SSW (200 degrees) at 8 MPH (7 knots; 3.6 m/s)
Visibility: 6 or more miles (10+ km)
Ceiling: unknown
Clouds: missing
Weather: NSW  (no significant weather)